Nearby METAR Reports

 

CYUL - Montreal/Dorval, Quebec, Canada
Distance from station: ENE 6km
Updated: 01/18/2019 07:00 EST
Light snow, Overcast
Light snow, Overcast
 Wind from N
Wind: N 17 km/h
Temperature: -16°C
Wind Chill: -24°C
Dew Point: -18°C
Humidity: 85%
Barometer: 1017.6 hPa
Summary: Light Snow
Clouds: Overcast
Visibility: 24 km
Cloud details: Mostly cloudy 701 m
Overcast 1524 m
Overcast 2743 m
2019/01/18 12:00 CYUL 181200Z 01009KT 15SM -SN BKN023 OVC050 OVC090 M16/M18 A3005 RMK SC5SC3AC1 AC TR SLP182
CWVQ - Ste Anne De Bell, Quebec, Canada
Distance from station: WSW 10km
Updated: 01/18/2019 07:00 EST

 Wind from NNE
Wind: NNE 9 km/h
Temperature: -16°C
Wind Chill: -22°C
Dew Point: -19°C
Humidity: 78%
2019/01/18 12:00 CWVQ 181200Z AUTO 02005KT M16/M19 RMK AO1 SOG 14 6009 SLP181 T11561187
 
CWTA - Mc Tavish (aut), Quebec, Canada
Distance from station: ENE 18km
Updated: 01/18/2019 07:00 EST

 Wind from N
Wind: N 9 km/h
Temperature: -15°C
Wind Chill: -21°C
Dew Point: -18°C
Humidity: 78%
2019/01/18 12:00 CWTA 181200Z AUTO 01005KT M15/M18 RMK AO1 SOG 32 6010 SLP180 T11451178
CYMX - Montreal/Mirabel, Quebec, Canada
Distance from station: NW 29km
Updated: 01/18/2019 07:00 EST
Light snow, Overcast
Light snow, Overcast
 Wind from ENE
Wind: ENE 9 km/h
Temperature: -16°C
Wind Chill: -22°C
Dew Point: -20°C
Humidity: 72%
Barometer: 1017.3 hPa
Summary: Light Snow
Clouds: Overcast
Visibility: 10 km
Cloud details: Mostly cloudy 610 m
Overcast 1524 m
2019/01/18 12:00 CYMX 181200Z 06005KT 6SM -SN BKN020 OVC050 M16/M20 A3004 RMK SC6SC2 SLP183
 
CYHU - Saint Hubert Arp, Quebec, Canada
Distance from station: ENE 31km
Updated: 01/18/2019 07:39 EST
Light snow, Overcast
Light snow, Overcast
 Wind from NNE
Wind: NNE 13 km/h
Temperature: -16°C
Wind Chill: -23°C
Dew Point: -18°C
Humidity: 85%
Barometer: 1017.6 hPa
Summary: Light Snow
Clouds: Overcast
Visibility: 8 km
Cloud details: Partly cloudy 914 m
Overcast 1189 m
2019/01/18 12:39 CYHU 181239Z AUTO 03007KT 5SM -SN SCT030 OVC039 M16/M18 A3005 RMK SLP180
CWIT - St Clothilde (a, Quebec, Canada
Distance from station: SSE 33km
Updated: 01/18/2019 07:00 EST

 Wind from NNE
Wind: NNE 6 km/h
Temperature: -14°C
Dew Point: -17°C
Humidity: 78%
2019/01/18 12:00 CWIT 181200Z AUTO 03003KT M14/M17 RMK AO1 SOG 12 5007 SLP169 T11371167 50019
 
CWIZ - L'acadie, Quebec, Canada
Distance from station: ESE 41km
Updated: 01/18/2019 07:00 EST

 Wind from NNE
Wind: NNE 9 km/h
Temperature: -15°C
Wind Chill: -21°C
Dew Point: -18°C
Humidity: 78%
2019/01/18 12:00 CWIZ 181200Z AUTO 02005KT M15/M18 RMK AO1 1PAST HR SOG 11 M P0000 T11531178 50002
CWHM - Varennes, Quebec, Canada
Distance from station: NE 45km
Updated: 10/25/2016 10:00 EDT
NOT Current

 Wind from W
Wind: W 19 km/h, Gust: 28 km/h
Temperature: 4°C
Wind Chill: 0°C
Dew Point: -2°C
Humidity: 65%
2016/10/25 14:00 CWHM 251400Z AUTO 28010G15KT 04/M02 RMK AO1 PK WND 28018/1302 T00391017
 
CWEW - L'assomption, Quebec, Canada
Distance from station: NE 50km
Updated: 01/18/2019 07:00 EST

 Wind from N
Wind: N 9 km/h
Temperature: -17°C
Wind Chill: -24°C
Dew Point: -20°C
Humidity: 78%
2019/01/18 12:00 CWEW 181200Z AUTO 01005KT M17/M20 RMK AO1 SOG 14 6010 SLP194 T11651195
CWBZ - St Anicet, Quebec, Canada
Distance from station: SW 52km
Updated: 01/18/2019 07:00 EST

 Wind from ENE
Wind: ENE 11 km/h
Temperature: -14°C
Wind Chill: -21°C
Dew Point: -16°C
Humidity: 85%
2019/01/18 12:00 CWBZ 181200Z AUTO 06006KT M14/M16 RMK AO1 SLP174 T11361162 55007
 
KFSO - Highgate, Vermont, USA
Distance from station: SE 79km
Updated: 01/18/2019 07:35 EST
Light snow, Overcast
Light snow, Overcast
 Wind from S
Wind: S 15 km/h
Temperature: -6°C
Wind Chill: -12°C
Dew Point: -9°C
Humidity: 80%
Barometer: 1017.3 hPa
Summary: Light Snow
Clouds: Overcast
Visibility: 8 km
Cloud details: Mostly cloudy 823 m
Overcast 1036 m
2019/01/18 12:35 KFSO 181235Z AUTO 17008KT 5SM -SN BKN027 OVC034 M06/M09 A3004 RMK AO2 T10561086
CMGB - Granby, Quebec, Canada
Distance from station: E 81km
Updated: 01/18/2019 07:45 EST

 Wind from S
Wind: S 6 km/h
Temperature: -7°C
Dew Point: -9°C
Humidity: 86%
2019/01/18 12:45 CMGB 181245Z AUTO 18003KT M07/M09 RMK AO1 SOG 15 6008 SLP176 T10741090
 
CWJT - St Jovite (autob, Quebec, Canada
Distance from station: NW 88km
Updated: 01/18/2019 07:00 EST

 Wind from N
Wind: N 2 km/h
Temperature: -15°C
Dew Point: -17°C
Humidity: 85%
2019/01/18 12:00 CWJT 181200Z AUTO 35001KT M15/M17 RMK AO1 SLP183 T11501170 56014
CWFQ - Frelighsburg, Quebec, Canada
Distance from station: ESE 90km
Updated: 01/18/2019 07:00 EST

 Wind from SSE
Wind: SSE 9 km/h
Temperature: -8°C
Wind Chill: -12°C
Dew Point: -10°C
Humidity: 86%
2019/01/18 12:00 CWFQ 181200Z AUTO 16005KT M08/M10 RMK AO1 7PAST HR SOG 23 6006 SLP171 P0003 T10821096 50011
 
KPBG - Plattsburgh Afb, New York, USA
Distance from station: SSE 93km
Updated: 01/18/2019 06:53 EST
Overcast
Overcast
 Wind from S
Wind: S 9 km/h
Temperature: -6°C
Wind Chill: -11°C
Dew Point: -10°C
Humidity: 74%
Barometer: 1017.3 hPa
Clouds: Overcast
Visibility: 16 km
Cloud details: Mostly cloudy 1676 m
Overcast 2134 m
2019/01/18 11:53 KPBG 181153Z AUTO 18005KT 10SM BKN055 OVC070 M06/M10 A3004 RMK AO2 SLP176 T10561100 11056 21106 55009
KMSS - Massena, New York, USA
Distance from station: SW 100km
Updated: 01/18/2019 07:48 EST
Light snow, Mist, Overcast
Light snow, Mist, Overcast
 Wind from ENE
Wind: ENE 7 km/h
Temperature: -12°C
Wind Chill: -17°C
Dew Point: -14°C
Humidity: 85%
Barometer: 1016.6 hPa
Summary: Light snow, Mist
Clouds: Overcast
Visibility: 5 km
Cloud details: Overcast 945 m
2019/01/18 12:48 KMSS 181248Z AUTO 07004KT 1 3/4SM -SN BR OVC031 M12/M14 A3002 RMK AO2 SLP177 P0000 T11221139
 
CWBS - Lac St Pierre (a, Quebec, Canada
Distance from station: NE 106km
Updated: 01/18/2019 07:00 EST

 Wind from N
Wind: N 17 km/h
Temperature: -16°C
Wind Chill: -24°C
Dew Point: -19°C
Humidity: 78%
2019/01/18 12:00 CWBS 181200Z AUTO 01009KT M16/M19 RMK AO1 T11631191
KBTV - Burlington, Vermont, USA
Distance from station: SSE 121km
Updated: 01/18/2019 06:54 EST
Light snow, Overcast
Light snow, Overcast
 Wind from S
Wind: S 19 km/h
Temperature: -6°C
Wind Chill: -13°C
Dew Point: -11°C
Humidity: 68%
Barometer: 1017.6 hPa
Summary: Light Snow
Clouds: Overcast
Visibility: 8 km
Cloud details: Overcast 1494 m
2019/01/18 11:54 KBTV 181154Z 18010KT 5SM -SN OVC049 M06/M11 A3005 RMK AO2 SNB22 SLP182 4/003 P0000 60000 T10561106 11056 21078 55008
 
KSLK - Saranac Lake, New York, USA
Distance from station: SSW 121km
Updated: 01/18/2019 06:51 EST
Light snow, Mist, Overcast
Light snow, Mist, Overcast
 Wind from WSW
Wind: WSW 9 km/h
Temperature: -8°C
Wind Chill: -12°C
Dew Point: -10°C
Humidity: 86%
Barometer: 1012.5 hPa
Summary: Light snow, Mist
Clouds: Overcast
Visibility: 6 km
Cloud details: Overcast 1341 m
2019/01/18 11:51 KSLK 181151Z AUTO 25005KT 4SM -SN BR OVC044 M08/M10 A2990 RMK AO2 SNB39 SLP162 P0000 60000 T10831100 11083 21133 56009
CWNQ - Nicolet (autob), Quebec, Canada
Distance from station: NE 123km
Updated: 01/18/2019 07:00 EST

 Wind from NNE
Wind: NNE 7 km/h
Temperature: -16°C
Wind Chill: -22°C
Dew Point: -20°C
Humidity: 72%
2019/01/18 12:00 CWNQ 181200Z AUTO 03004KT M16/M20 RMK AO1 SLP181 T11621201 55013
 
KMWN - Mount Washington, New Hampshire, USA
Distance from station: SE 237km
Updated: 01/18/2019 06:57 EST
Snow showers, Freezing, Fog, Overcast
Snow showers, Freezing, Fog, Overcast
 Wind from SW
Wind: SW 59 km/h, Gust: 69 km/h
Temperature: -17°C
Wind Chill: -33°C
Dew Point: -17°C
Humidity: 100%
Summary: Snow showers, Freezing, Fog
Clouds: Overcast
Visibility: 2 km
Cloud details: Overcast 30 m
2019/01/18 11:57 KMWN 181157Z 23032G37KT 1/16SM SHSN FZFG VV001 M17/M17 RMK VRY LGT ICG 60000 4/014 931001 11158 21198
CYVR - Vancouver Intl A, British Columbia, Canada
Distance from station: NW 3676km
Updated: 01/18/2019 07:00 EST
Mostly cloudy
Mostly cloudy
 Wind from SE
Wind: SE 20 km/h
Temperature: 9°C
Wind Chill: 6°C
Dew Point: 6°C
Humidity: 82%
Barometer: 1012.9 hPa
Clouds: Mostly cloudy
Visibility: 32 km
Cloud details: Few Clouds 1433 m
Mostly cloudy 2682 m
Mostly cloudy 3048 m
2019/01/18 12:00 CYVR 181200Z 14011KT 20SM FEW047 BKN088 BKN100 09/06 A2991 RMK SC1AC6AC1 AC TR SLP129